Latest Coastal Weather Observations for Ngayawili (Elcho Island)

IDD60701

Issued at 11:11 am CST Tuesday 9 February 2016 (issued every 10 minutes, with the page automatically refreshed every 10 minutes)

About coastal observations | Map of coastal stations | Coastal observations for NT | Marine services | Other Formats
Station Details ID: 014517 Name: NGAYAWILI Lat: -12.00 Lon: 135.57 Height: 8.1 m
Data from the previous 72 hours. | See also: Recent months at Ngayawili (Elcho Island)
Date/Time
CST
Temp

°C
Wind Pressure Rain
since 9am
mm
Weather Cloud Vis
km
Sea
Height
m
Swell
Dir
 
Speed
knots
Gust
knots
hPa Trend Height
m
Period
s
Dir
09/11:00am 32.1 WNW 13 15 1008.5 - 0.0 - - - - - - -
09/10:30am 31.5 WNW 14 17 1008.7 - 0.0 - - - - - - -
09/10:00am 31.4 WNW 15 17 1008.8 - 0.0 - - - - - - -
09/09:30am 31.2 WNW 15 18 1009.0 - 0.0 - - - - - - -
09/09:00am 31.0 WNW 15 17 1008.7 - 0.0 - - - - - - -
09/08:30am 30.6 WNW 15 18 1008.4 - 0.0 - - - - - - -
09/08:00am 30.7 WNW 15 17 1008.3 - 0.0 - - - - - - -
09/07:30am 30.0 WNW 14 17 1008.0 - 0.0 - - - - - - -
09/07:00am 29.8 WNW 14 17 1007.6 - 0.0 - - - - - - -
09/06:30am 29.9 WNW 15 16 1007.1 - 0.0 - - - - - - -
09/06:00am 29.4 WNW 14 16 1006.7 - 0.0 - - - - - - -
09/05:30am 29.8 WNW 14 17 1006.5 - 0.0 - - - - - - -
09/05:00am 29.9 WNW 14 16 1006.3 - 0.0 - - - - - - -
09/04:30am 29.5 WNW 13 15 1006.3 - 0.0 - - - - - - -
09/04:00am 29.6 NW 13 16 1006.5 - 0.0 - - - - - - -
09/03:30am 29.7 NW 13 17 1006.6 - 0.0 - - - - - - -
09/03:00am 29.8 WNW 13 15 1006.7 - 0.0 - - - - - - -
09/02:30am 29.5 NW 12 15 1006.7 - 0.0 - - - - - - -
09/02:00am 29.6 WNW 11 13 1006.9 - 0.0 - - - - - - -
09/01:30am 29.7 WNW 11 12 1007.4 - 0.0 - - - - - - -
09/01:00am 29.9 WNW 9 11 1007.8 - 0.0 - - - - - - -
09/12:30am 29.9 WNW 10 11 1008.3 - 0.0 - - - - - - -
09/12:00am 29.9 NW 9 10 1008.5 - 0.0 - - - - - - -
 
Date/Time
CST
Temp

°C
Wind Pressure Rain
since 9am
mm
Weather Cloud Vis
km
Sea
Height
m
Swell
Dir
 
Speed
knots
Gust
knots
hPa Trend Height
m
Period
s
Dir
08/11:30pm 29.9 NW 9 10 1008.6 - 0.0 - - - - - - -
08/11:00pm 29.9 NNW 9 11 1008.4 - 0.0 - - - - - - -
08/10:30pm 29.9 NW 10 12 1008.2 - 0.0 - - - - - - -
08/10:00pm 29.9 NW 11 12 1008.0 - 0.0 - - - - - - -
08/09:30pm 30.0 NW 11 13 1007.8 - 0.0 - - - - - - -
08/09:00pm 29.8 NNW 11 13 1007.5 - 0.0 - - - - - - -
08/08:30pm 30.0 NW 12 13 1007.3 - 0.0 - - - - - - -
08/08:00pm 30.0 NW 12 15 1006.9 - 0.0 - - - - - - -
08/07:30pm 30.4 NW 12 13 1006.7 - 0.0 - - - - - - -
08/07:00pm 30.3 NW 12 13 1006.2 - 0.0 - - - - - - -
08/06:30pm 30.7 NNW 12 14 1006.1 - 0.0 - - - - - - -
08/06:00pm 31.3 NNW 13 15 1006.0 - 0.0 - - - - - - -
08/05:30pm 31.4 NNW 13 15 1005.8 - 0.0 - - - - - - -
08/05:00pm 31.6 NW 11 14 1005.8 - 0.0 - - - - - - -
08/04:30pm 32.4 NW 11 14 1005.7 - 0.0 - - - - - - -
08/04:00pm 32.0 NW 11 13 1005.8 - 0.0 - - - - - - -
08/03:30pm 32.3 NW 11 12 1006.1 - 0.0 - - - - - - -
08/03:00pm 32.0 NW 9 11 1006.3 - 0.0 - - - - - - -
08/02:30pm 32.0 NW 9 11 1006.6 - 0.0 - - - - - - -
08/02:00pm 32.4 WNW 9 11 1007.1 - 0.0 - - - - - - -
08/01:30pm 32.6 WNW 9 11 1007.6 - 0.0 - - - - - - -
08/01:00pm 32.5 WNW 9 11 1008.0 - 0.0 - - - - - - -
08/12:30pm 32.5 WNW 9 11 1008.3 - 0.0 - - - - - - -
08/12:00pm 32.4 WNW 10 13 1008.8 - 0.0 - - - - - - -
08/11:30am 31.7 WNW 10 12 1008.9 - 0.0 - - - - - - -
08/11:00am 31.7 WNW 11 13 1009.1 - 0.0 - - - - - - -
08/10:30am 31.5 WNW 11 13 1009.2 - 0.0 - - - - - - -
08/10:00am 31.4 WNW 11 14 1009.2 - 0.0 - - - - - - -
08/09:30am 31.0 WNW 12 14 1009.1 - 0.0 - - - - - - -
08/09:00am 30.5 WNW 12 14 1008.9 - 5.6 - - - - - - -
08/08:30am 30.3 WNW 12 15 1008.9 - 5.6 - - - - - - -
08/08:00am 29.7 NW 13 15 1008.7 - 5.6 - - - - - - -
08/07:30am 29.7 NW 12 15 1008.3 - 5.6 - - - - - - -
08/07:00am 29.5 NW 13 14 1008.0 - 5.6 - - - - - - -
08/06:30am 29.4 NW 13 14 1007.8 - 5.6 - - - - - - -
08/06:00am 29.3 NW 12 14 1007.6 - 5.6 - - - - - - -
08/05:30am 29.4 NW 11 13 1007.5 - 5.6 - - - - - - -
08/05:00am 29.1 NW 10 12 1007.5 - 5.6 - - - - - - -
08/04:30am 28.8 NW 11 13 1007.4 - 5.6 - - - - - - -
08/04:00am 25.8 CALM 0 0 1007.6 - 5.6 - - - - - - -
08/03:30am 26.1 ENE 4 6 1007.7 - 5.6 - - - - - - -
08/03:00am 26.4 NE 6 7 1007.9 - 5.6 Recent precip. - - - - - -
08/02:30am 27.0 S 7 10 1008.3 - 5.4 - - - - - - -
08/02:00am 29.3 W 4 6 1008.4 - 5.2 - - - - - - -
08/01:30am 29.3 WNW 7 8 1008.7 - 5.2 - - - - - - -
08/01:00am 29.4 WNW 6 8 1008.9 - 5.2 - - - - - - -
08/12:30am 29.3 NW 8 9 1009.1 - 5.2 - - - - - - -
08/12:00am 29.4 NNW 8 10 1009.2 - 5.2 - - - - - - -
 
Date/Time
CST
Temp

°C
Wind Pressure Rain
since 9am
mm
Weather Cloud Vis
km
Sea
Height
m
Swell
Dir
 
Speed
knots
Gust
knots
hPa Trend Height
m
Period
s
Dir
07/11:30pm 29.6 NNW 10 11 1009.2 - 5.2 - - - - - - -
07/11:00pm 29.6 NNW 11 14 1009.2 - 5.2 - - - - - - -
07/10:30pm 29.6 NNW 13 15 1009.3 - 5.2 - - - - - - -
07/10:00pm 29.9 NW 13 16 1009.0 - 5.2 - - - - - - -
07/09:30pm 29.7 NNW 13 15 1008.7 - 5.2 - - - - - - -
07/09:00pm 29.8 NNW 13 16 1008.3 - 5.2 - - - - - - -
07/08:30pm 30.0 NNW 12 14 1007.8 - 5.2 - - - - - - -
07/08:00pm 30.1 NNW 12 14 1007.5 - 5.2 - - - - - - -
07/07:30pm 30.0 NW 11 13 1007.3 - 5.2 - - - - - - -
07/07:00pm 30.0 NNW 11 13 1007.0 - 5.2 - - - - - - -
07/06:30pm 30.1 NNW 10 12 1006.5 - 5.2 - - - - - - -
07/06:00pm 30.6 N 10 12 1006.1 - 5.2 - - - - - - -
07/05:30pm 31.2 NNW 8 10 1005.7 - 5.2 - - - - - - -
07/05:00pm 31.5 NNW 10 11 1005.4 - 5.2 - - - - - - -
07/04:30pm 31.3 NNW 11 13 1005.5 - 5.2 - - - - - - -
07/04:00pm 31.5 NNW 9 13 1005.6 - 5.2 - - - - - - -
07/03:30pm 30.4 N 8 11 1006.0 - 5.2 - - - - - - -
07/03:00pm 30.4 N 9 12 1006.1 - 5.2 - - - - - - -
07/02:30pm 31.7 NW 10 12 1006.3 - 5.2 - - - - - - -
07/02:00pm 31.5 NW 8 10 1006.7 - 5.2 - - - - - - -
07/01:30pm 31.4 NW 9 11 1006.9 - 5.2 - - - - - - -
07/01:00pm 31.4 WNW 10 12 1007.1 - 5.2 - - - - - - -
07/12:30pm 30.5 WNW 9 11 1007.6 - 5.2 - - - - - - -
07/12:00pm 27.8 NE 1 5 1007.9 - 5.2 Recent precip. - - - - - -
07/11:30am 26.2 NNW 9 14 1008.4 - 5.0 - - - - - - -
07/11:05am 29.1 NW 16 26 1007.9 - 0.0 - - - - - - -
07/11:00am 30.4 NW 12 20 1007.9 - 0.0 - - - - - - -
07/10:30am 29.6 W 13 18 1008.2 - 0.0 - - - - - - -
07/10:00am 30.3 WNW 10 11 1008.3 - 0.0 - - - - - - -
07/09:30am 30.5 NW 8 10 1008.2 - 0.0 - - - - - - -
07/09:00am 30.5 NW 10 11 1008.1 - 0.8 - - - - - - -
07/08:30am 29.7 WNW 8 11 1007.8 - 0.8 - - - - - - -
07/08:00am 29.7 WNW 7 9 1007.9 - 0.8 - - - - - - -
07/07:30am 29.5 WNW 8 9 1007.7 - 0.8 - - - - - - -
07/07:00am 29.1 WNW 7 9 1007.4 - 0.8 - - - - - - -
07/06:30am 29.0 WNW 8 9 1007.2 - 0.8 - - - - - - -
07/06:00am 28.8 WNW 8 9 1007.0 - 0.8 - - - - - - -
07/05:30am 28.7 WNW 7 9 1006.8 - 0.8 - - - - - - -
07/05:00am 28.7 WNW 7 8 1006.6 - 0.8 - - - - - - -
07/04:30am 28.5 W 6 7 1006.4 - 0.8 - - - - - - -
07/04:00am 28.3 WSW 6 7 1006.3 - 0.8 - - - - - - -
07/03:30am 27.5 WSW 5 7 1006.3 - 0.8 - - - - - - -
07/03:00am 26.5 S 3 4 1006.3 - 0.8 - - - - - - -
07/02:30am 26.5 SE 3 4 1006.3 - 0.8 - - - - - - -
07/02:00am 26.4 SSE 4 5 1006.6 - 0.8 - - - - - - -
07/01:30am 26.5 SE 5 5 1006.8 - 0.8 - - - - - - -
07/01:00am 26.5 SE 5 6 1007.0 - 0.8 - - - - - - -
07/12:30am 26.4 SE 5 6 1007.3 - 0.8 - - - - - - -
07/12:00am 26.2 SE 5 6 1007.5 - 0.8 - - - - - - -
 
Date/Time
CST
Temp

°C
Wind Pressure Rain
since 9am
mm
Weather Cloud Vis
km
Sea
Height
m
Swell
Dir
 
Speed
knots
Gust
knots
hPa Trend Height
m
Period
s
Dir
06/11:30pm 26.4 SE 4 5 1007.5 - 0.8 - - - - - - -
06/11:00pm 26.6 SE 5 6 1007.5 - 0.8 - - - - - - -
06/10:30pm 26.8 SE 4 5 1007.1 - 0.8 - - - - - - -
06/10:00pm 27.2 SSE 6 7 1006.8 - 0.6 - - - - - - -
06/09:30pm 27.3 SE 4 5 1006.6 - 0.6 - - - - - - -
06/09:00pm 28.6 SW 6 7 1006.4 - 0.6 - - - - - - -
06/08:30pm 28.8 WSW 7 8 1006.3 - 0.6 - - - - - - -
06/08:00pm 29.3 WNW 11 13 1005.9 - 0.6 - - - - - - -
06/07:30pm 29.1 NW 11 13 1005.8 - 0.6 - - - - - - -
06/07:00pm 27.9 WNW 17 22 1005.7 - 0.2 - - - - - - -
06/06:30pm 29.0 W 9 18 1005.7 - 0.2 - - - - - - -
06/06:00pm 29.8 ESE 1 5 1005.5 - 0.0 - - - - - - -
06/05:30pm 28.9 SSE 9 11 1005.4 - 0.0 - - - - - - -
06/05:00pm 31.7 NW 12 15 1004.7 - 0.0 - - - - - - -
06/04:30pm 31.4 NW 13 15 1004.2 - 0.0 - - - - - - -
06/04:00pm 31.5 NW 13 15 1004.2 - 0.0 - - - - - - -
06/03:30pm 31.8 NW 12 15 1004.5 - 0.0 - - - - - - -
06/03:00pm 31.5 NW 14 16 1004.7 - 0.0 - - - - - - -
06/02:30pm 31.2 NW 15 18 1005.2 - 0.0 - - - - - - -
06/02:00pm 31.0 WNW 16 19 1005.5 - 0.0 - - - - - - -
06/01:30pm 31.4 WNW 16 18 1005.9 - 0.0 - - - - - - -
06/01:00pm 31.3 WNW 14 17 1006.2 - 0.0 - - - - - - -
06/12:30pm 31.1 W 13 16 1006.6 - 0.0 - - - - - - -
06/12:00pm 31.7 WNW 13 15 1007.0 - 0.0 - - - - - - -
06/11:30am 31.5 WNW 14 17 1007.3 - 0.0 - - - - - - -

Other Formats:

Comma delimited format used in spreadsheet applications
http://www.bom.gov.au/fwo/IDD60701/IDD60701.95146.axf

JavaScript Object Notation format (JSON) in row-major order
http://www.bom.gov.au/fwo/IDD60701/IDD60701.95146.json